createdAt,value
2017-06-18T00:01:22.731Z,14.83
2017-06-18T00:03:50.264Z,15.07
2017-06-18T00:06:17.786Z,13.93
2017-06-18T00:08:45.311Z,15.97
2017-06-18T00:11:13.234Z,13.20
2017-06-18T00:13:40.755Z,16.00
2017-06-18T00:16:08.298Z,15.70
2017-06-18T00:18:35.794Z,15.30
2017-06-18T00:21:03.342Z,16.93
2017-06-18T00:23:30.880Z,15.80
2017-06-18T00:25:58.391Z,13.43
2017-06-18T00:28:25.929Z,16.33
2017-06-18T00:30:54.409Z,13.30
2017-06-18T00:33:21.962Z,12.20
2017-06-18T00:35:49.489Z,13.30
2017-06-18T00:38:17.030Z,13.60
2017-06-18T00:40:44.619Z,15.23
2017-06-18T00:43:12.148Z,14.90
2017-06-18T00:45:39.646Z,14.67
2017-06-18T00:48:07.154Z,13.03
2017-06-18T00:50:34.650Z,16.97
2017-06-18T00:53:02.171Z,14.60
2017-06-18T00:55:30.053Z,15.00
2017-06-18T00:57:57.954Z,14.43
2017-06-18T01:00:25.442Z,14.07
2017-06-18T01:02:52.958Z,14.67
2017-06-18T01:05:20.445Z,17.40
2017-06-18T01:07:47.957Z,15.60
2017-06-18T01:10:15.450Z,16.83
2017-06-18T01:12:42.964Z,15.13
2017-06-18T01:15:10.454Z,17.73
2017-06-18T01:17:39.079Z,14.33
2017-06-18T01:20:06.969Z,15.63
2017-06-18T01:22:34.497Z,14.90
2017-06-18T01:25:01.997Z,15.13
2017-06-18T01:27:29.497Z,14.33
2017-06-18T01:29:56.989Z,15.43
2017-06-18T01:32:24.516Z,13.70
2017-06-18T01:34:52.794Z,15.00
2017-06-18T01:37:20.297Z,15.83
2017-06-18T01:39:47.801Z,15.37
2017-06-18T01:42:15.310Z,15.20
2017-06-18T01:44:42.826Z,15.47
2017-06-18T01:47:10.311Z,14.53
2017-06-18T01:49:38.829Z,16.17
2017-06-18T01:52:06.804Z,14.27
2017-06-18T01:54:35.038Z,15.40
2017-06-18T01:57:02.549Z,14.03
2017-06-18T01:59:30.033Z,13.60
2017-06-18T02:01:57.545Z,12.93
2017-06-18T02:04:25.033Z,12.23
2017-06-18T02:06:52.559Z,14.13
2017-06-18T02:09:20.986Z,14.43
2017-06-18T02:11:49.375Z,13.30
2017-06-18T02:14:16.882Z,13.77
2017-06-18T02:16:44.389Z,15.40
2017-06-18T02:19:11.893Z,14.07
2017-06-18T02:21:39.381Z,14.83
2017-06-18T02:24:06.909Z,14.27
2017-06-18T02:26:34.398Z,14.30
2017-06-18T02:29:01.916Z,13.63
2017-06-18T02:31:29.421Z,14.30
2017-06-18T02:33:56.913Z,14.53
2017-06-18T02:36:24.415Z,15.43
2017-06-18T02:38:51.911Z,15.07
2017-06-18T02:41:21.358Z,14.63
2017-06-18T02:43:48.847Z,17.30
2017-06-18T02:46:16.333Z,12.23
2017-06-18T02:48:43.841Z,15.03
2017-06-18T02:51:11.325Z,12.53
2017-06-18T02:53:38.821Z,14.97
2017-06-18T02:56:06.301Z,13.37
2017-06-18T02:58:34.789Z,13.47
2017-06-18T03:01:02.278Z,14.10
2017-06-18T03:03:29.769Z,14.13
2017-06-18T03:05:57.277Z,16.20
2017-06-18T03:08:24.760Z,14.97
2017-06-18T03:10:52.257Z,15.50
2017-06-18T03:13:20.774Z,13.93
2017-06-18T03:15:48.274Z,14.30
2017-06-18T03:18:15.753Z,16.27
2017-06-18T03:20:43.266Z,15.63
2017-06-18T03:23:16.532Z,15.63
2017-06-18T03:25:44.044Z,17.90
2017-06-18T03:28:11.534Z,16.70
2017-06-18T03:30:39.021Z,15.53
2017-06-18T03:33:06.514Z,17.57
2017-06-18T03:35:33.997Z,16.90
2017-06-18T03:38:01.497Z,16.20
2017-06-18T03:40:29.389Z,16.47
2017-06-18T03:42:56.913Z,18.23
2017-06-18T03:45:24.406Z,18.37
2017-06-18T03:47:51.889Z,18.97
2017-06-18T03:50:19.618Z,17.30
2017-06-18T03:52:49.126Z,23.60
2017-06-18T03:55:17.537Z,18.33
2017-06-18T03:57:45.021Z,19.60
2017-06-18T04:03:23.884Z,19.83
2017-06-18T04:05:51.763Z,19.97
2017-06-18T04:08:21.211Z,20.30
2017-06-18T04:10:48.694Z,20.27
2017-06-18T04:13:16.213Z,19.50
2017-06-18T04:15:43.694Z,22.70
2017-06-18T04:18:11.177Z,18.90
2017-06-18T04:20:39.578Z,18.13
2017-06-18T04:23:07.056Z,19.73
2017-06-18T04:25:34.562Z,23.10
2017-06-18T04:28:02.042Z,21.97
2017-06-18T04:30:29.542Z,18.83
2017-06-18T04:32:57.037Z,21.70
2017-06-18T04:35:25.470Z,21.13
2017-06-18T04:37:52.967Z,19.60
2017-06-18T04:40:20.450Z,18.87
2017-06-18T04:42:48.362Z,17.10
2017-06-18T04:45:15.848Z,19.00
2017-06-18T04:47:43.329Z,17.73
2017-06-18T04:50:11.227Z,18.27
2017-06-18T04:52:38.722Z,18.27
2017-06-18T04:55:08.174Z,17.83
2017-06-18T04:57:35.658Z,17.10
2017-06-18T05:00:03.133Z,16.50
2017-06-18T05:02:30.634Z,15.93
2017-06-18T05:04:58.114Z,16.00
2017-06-18T05:07:25.633Z,20.53
2017-06-18T05:09:53.505Z,15.73
2017-06-18T05:12:21.022Z,15.50
2017-06-18T05:14:48.518Z,15.57
2017-06-18T05:17:16.397Z,15.27
2017-06-18T05:19:44.297Z,17.53
2017-06-18T05:22:11.778Z,17.30
2017-06-18T05:24:39.261Z,17.43
2017-06-18T05:27:06.762Z,19.87
2017-06-18T05:29:34.241Z,20.23
2017-06-18T05:32:01.758Z,19.87
2017-06-18T05:34:29.246Z,19.57
2017-06-18T05:36:57.669Z,19.77
2017-06-18T05:39:26.070Z,21.47
2017-06-18T05:41:53.549Z,23.33
2017-06-18T05:44:21.061Z,19.47
2017-06-18T05:46:48.940Z,22.27
2017-06-18T05:49:16.422Z,20.37
2017-06-18T05:51:43.921Z,21.77
2017-06-18T05:54:12.337Z,20.90
2017-06-18T05:56:39.870Z,20.60
2017-06-18T05:59:07.349Z,18.60
2017-06-18T06:01:35.777Z,19.13
2017-06-18T06:04:03.285Z,17.53
2017-06-18T06:06:30.762Z,17.33
2017-06-18T06:08:58.268Z,16.30
2017-06-18T06:11:26.713Z,17.23
2017-06-18T06:13:55.085Z,15.70
2017-06-18T06:16:22.589Z,15.60
2017-06-18T06:18:50.069Z,15.90
2017-06-18T06:21:17.989Z,14.80
2017-06-18T06:23:45.466Z,17.67
2017-06-18T06:26:12.941Z,13.70
2017-06-18T06:28:40.453Z,13.27
2017-06-18T06:31:07.950Z,13.30
2017-06-18T06:33:35.462Z,8.87
2017-06-18T06:36:02.938Z,9.63
2017-06-18T06:38:30.426Z,9.77
2017-06-18T06:40:57.933Z,13.50
2017-06-18T06:43:25.426Z,11.00
2017-06-18T06:45:52.957Z,11.47
2017-06-18T06:48:21.685Z,8.83
2017-06-18T06:50:49.170Z,8.10
2017-06-18T06:53:18.608Z,10.50
2017-06-18T06:55:46.089Z,9.93
2017-06-18T06:58:13.573Z,9.40
2017-06-18T07:00:41.057Z,9.83
2017-06-18T07:03:08.586Z,10.33
2017-06-18T07:05:36.090Z,10.27
2017-06-18T07:08:03.574Z,12.73
2017-06-18T07:10:31.079Z,11.10
2017-06-18T07:12:58.578Z,7.53
2017-06-18T07:15:26.081Z,7.30
2017-06-18T07:17:53.557Z,5.93
2017-06-18T07:20:22.977Z,8.40
2017-06-18T07:22:50.450Z,8.97
2017-06-18T07:25:17.920Z,6.70
2017-06-18T07:27:45.435Z,4.30
2017-06-18T07:30:12.931Z,6.03
2017-06-18T07:32:42.377Z,7.17
2017-06-18T07:35:09.861Z,6.00
2017-06-18T07:37:38.270Z,7.63
2017-06-18T07:40:05.749Z,7.57
2017-06-18T07:42:33.621Z,7.80
2017-06-18T07:45:01.121Z,11.20
2017-06-18T07:47:28.600Z,8.13
2017-06-18T07:49:56.095Z,7.67
2017-06-18T07:52:23.577Z,7.80
2017-06-18T07:54:51.091Z,5.37
2017-06-18T07:57:18.578Z,4.50
2017-06-18T07:59:46.058Z,3.10
2017-06-18T08:02:13.559Z,4.53
2017-06-18T08:04:41.217Z,4.57
2017-06-18T08:07:09.424Z,4.23
2017-06-18T08:09:36.918Z,4.20
2017-06-18T08:12:04.665Z,3.50
2017-06-18T08:14:32.153Z,4.43
2017-06-18T08:16:59.634Z,9.00
2017-06-18T08:19:27.529Z,3.47
2017-06-18T08:21:55.946Z,4.57
2017-06-18T08:24:23.444Z,2.70
2017-06-18T08:26:51.862Z,3.77
2017-06-18T08:29:19.376Z,3.80
2017-06-18T08:31:47.245Z,2.33
2017-06-18T08:34:16.062Z,2.40
2017-06-18T08:36:43.549Z,8.63
2017-06-18T08:39:11.025Z,2.80
2017-06-18T08:41:38.518Z,3.93
2017-06-18T08:44:06.002Z,2.90
2017-06-18T08:46:33.517Z,2.20
2017-06-18T08:49:00.993Z,4.30
2017-06-18T08:51:28.469Z,2.20
2017-06-18T08:53:55.962Z,3.40
2017-06-18T08:56:23.437Z,3.27
2017-06-18T08:58:50.937Z,3.10
2017-06-18T09:01:18.501Z,3.10
2017-06-18T09:03:46.014Z,2.40
2017-06-18T09:06:13.882Z,3.90
2017-06-18T09:08:41.762Z,4.50
2017-06-18T09:11:09.275Z,4.87
2017-06-18T09:13:36.756Z,5.90
2017-06-18T09:16:04.661Z,3.50
2017-06-18T09:18:32.161Z,3.20
2017-06-18T09:20:59.642Z,3.60
2017-06-18T09:23:27.533Z,4.60
2017-06-18T09:25:55.056Z,3.50
2017-06-18T09:28:22.569Z,2.80
2017-06-18T09:30:50.041Z,4.70
2017-06-18T09:33:18.330Z,2.70
2017-06-18T09:35:45.834Z,6.03
2017-06-18T09:38:14.252Z,3.87
2017-06-18T09:40:41.761Z,4.70
2017-06-18T09:43:09.234Z,2.40
2017-06-18T09:45:36.730Z,2.60
2017-06-18T09:48:04.252Z,2.80
2017-06-18T09:50:31.730Z,3.13
2017-06-18T09:53:00.145Z,3.57
2017-06-18T09:55:28.049Z,2.40
2017-06-18T09:57:55.534Z,3.63
2017-06-18T10:00:23.046Z,2.80
2017-06-18T10:02:51.322Z,2.83
2017-06-18T10:05:18.803Z,4.80
2017-06-18T10:07:46.309Z,4.33
2017-06-18T10:10:13.807Z,4.10
2017-06-18T10:12:41.281Z,3.00
2017-06-18T10:15:08.781Z,7.37
2017-06-18T10:17:36.262Z,2.73
2017-06-18T10:20:04.204Z,3.00
2017-06-18T10:22:31.684Z,3.17
2017-06-18T10:24:59.168Z,3.33
2017-06-18T10:27:28.609Z,2.50
2017-06-18T10:29:56.769Z,3.10
2017-06-18T10:32:24.277Z,3.50
2017-06-18T10:34:52.158Z,3.33
2017-06-18T10:37:19.626Z,4.17
2017-06-18T10:39:47.125Z,3.00
2017-06-18T10:42:14.608Z,3.07
2017-06-18T10:44:42.501Z,3.53
2017-06-18T10:47:09.982Z,2.83
2017-06-18T10:49:37.481Z,4.23
2017-06-18T10:52:05.381Z,3.63
2017-06-18T10:54:32.881Z,3.40
2017-06-18T10:57:00.365Z,3.20
2017-06-18T10:59:27.879Z,2.90
2017-06-18T11:01:55.375Z,3.23
2017-06-18T11:04:23.819Z,3.23
2017-06-18T11:06:51.341Z,3.37
2017-06-18T11:09:18.834Z,3.10
2017-06-18T11:11:46.325Z,4.30
2017-06-18T11:14:13.823Z,2.90
2017-06-18T11:16:41.310Z,2.93
2017-06-18T11:19:08.834Z,3.67
2017-06-18T11:21:36.337Z,3.30
2017-06-18T11:24:03.833Z,2.57
2017-06-18T11:26:31.411Z,3.17
2017-06-18T11:29:00.898Z,3.00
2017-06-18T11:31:28.393Z,5.27
2017-06-18T11:33:55.914Z,3.53
2017-06-18T11:36:23.401Z,3.03
2017-06-18T11:38:50.909Z,3.47
2017-06-18T11:41:18.390Z,2.77
2017-06-18T11:43:45.890Z,2.40
2017-06-18T11:46:13.376Z,2.30
2017-06-18T11:48:40.870Z,4.30
2017-06-18T11:51:08.373Z,3.43
2017-06-18T11:53:35.871Z,2.90
2017-06-18T11:56:03.399Z,2.90
2017-06-18T11:58:30.910Z,4.47
2017-06-18T12:00:59.359Z,3.07
2017-06-18T12:03:27.264Z,2.77
2017-06-18T12:05:54.746Z,2.53
2017-06-18T12:08:22.261Z,2.10
2017-06-18T12:10:49.754Z,2.70
2017-06-18T12:13:17.256Z,2.73
2017-06-18T12:15:45.133Z,2.70
2017-06-18T12:18:12.642Z,4.53
2017-06-18T12:20:42.092Z,2.40
2017-06-18T12:23:09.570Z,2.60
2017-06-18T12:25:37.071Z,2.30
2017-06-18T12:28:04.561Z,3.13
2017-06-18T12:30:32.062Z,2.23
2017-06-18T12:32:59.551Z,2.60
2017-06-18T12:35:28.982Z,3.20
2017-06-18T12:37:57.358Z,2.03
2017-06-18T12:40:24.862Z,2.37
2017-06-18T12:42:52.349Z,2.73
2017-06-18T12:45:20.258Z,2.20
2017-06-18T12:47:47.741Z,4.07
2017-06-18T12:50:17.193Z,3.90
2017-06-18T12:52:44.707Z,2.00
2017-06-18T12:55:12.222Z,2.80
2017-06-18T12:57:39.700Z,2.20
2017-06-18T13:00:07.217Z,2.10
2017-06-18T13:02:35.997Z,1.80
2017-06-18T13:05:03.507Z,2.03
2017-06-18T13:07:30.994Z,2.03
2017-06-18T13:09:58.497Z,2.10
2017-06-18T13:12:26.001Z,2.03
2017-06-18T13:14:55.449Z,2.00
2017-06-18T13:17:22.938Z,1.90
2017-06-18T13:19:50.491Z,1.40
2017-06-18T13:22:17.989Z,2.53
2017-06-18T13:24:45.494Z,2.73
2017-06-18T13:27:12.973Z,2.33
2017-06-18T13:29:40.465Z,2.40
2017-06-18T13:32:07.957Z,2.23
2017-06-18T13:34:35.458Z,2.07
2017-06-18T13:37:02.978Z,2.10
2017-06-18T13:39:30.478Z,4.40
2017-06-18T13:41:58.025Z,2.00
2017-06-18T13:44:25.530Z,1.83
2017-06-18T13:46:53.017Z,3.70
2017-06-18T13:49:20.522Z,1.80
2017-06-18T13:51:49.307Z,1.73
2017-06-18T13:54:16.837Z,2.40
2017-06-18T13:56:44.317Z,2.23
2017-06-18T13:59:11.917Z,1.70
2017-06-18T14:01:40.300Z,2.33
2017-06-18T14:04:07.805Z,1.93
2017-06-18T14:06:35.277Z,1.77
2017-06-18T14:09:02.775Z,2.20
2017-06-18T14:11:30.249Z,2.77
2017-06-18T14:13:57.745Z,2.10
2017-06-18T14:16:25.242Z,2.10
2017-06-18T14:18:52.745Z,2.30
2017-06-18T14:21:20.230Z,2.00
2017-06-18T14:23:47.737Z,2.30
2017-06-18T14:26:15.225Z,2.10
2017-06-18T14:28:42.721Z,1.70
2017-06-18T14:31:11.173Z,2.93
2017-06-18T14:33:38.674Z,4.50
2017-06-18T14:36:06.157Z,7.50
2017-06-18T14:38:33.661Z,10.70
2017-06-18T14:41:01.153Z,15.57
2017-06-18T14:43:28.650Z,15.33
2017-06-18T14:45:56.130Z,8.37
2017-06-18T14:48:25.541Z,2.60
2017-06-18T14:50:53.029Z,2.23
2017-06-18T14:53:20.541Z,2.70
2017-06-18T14:55:48.413Z,1.67
2017-06-18T14:58:16.297Z,2.13
2017-06-18T15:00:44.737Z,2.60
2017-06-18T15:03:13.128Z,2.77
2017-06-18T15:05:41.001Z,2.00
2017-06-18T15:08:08.497Z,1.83
2017-06-18T15:10:35.985Z,1.63
2017-06-18T15:13:03.522Z,1.80
2017-06-18T15:15:31.059Z,2.10
2017-06-18T15:17:58.570Z,1.80
2017-06-18T15:20:26.050Z,2.20
2017-06-18T15:22:53.555Z,1.90
2017-06-18T15:25:21.272Z,2.07
2017-06-18T15:27:48.818Z,1.97
2017-06-18T15:30:17.636Z,3.20
2017-06-18T15:32:45.129Z,4.43
2017-06-18T15:35:12.617Z,2.70
2017-06-18T15:37:40.115Z,1.83
2017-06-18T15:40:07.589Z,2.33
2017-06-18T15:42:35.090Z,1.80
2017-06-18T15:45:03.901Z,1.77
2017-06-18T15:47:31.402Z,2.90
2017-06-18T15:49:58.886Z,2.00
2017-06-18T15:52:26.790Z,3.70
2017-06-18T15:54:54.266Z,2.13
2017-06-18T15:57:21.762Z,2.10
2017-06-18T15:59:49.244Z,1.80
2017-06-18T16:02:16.734Z,2.10
2017-06-18T16:04:45.156Z,2.43
2017-06-18T16:07:13.050Z,2.60
2017-06-18T16:09:40.538Z,2.23
2017-06-18T16:12:08.634Z,1.90
2017-06-18T16:14:36.122Z,1.80
2017-06-18T16:17:03.632Z,1.70
2017-06-18T16:19:31.110Z,1.60
2017-06-18T16:21:58.606Z,3.30
2017-06-18T16:24:26.094Z,2.00
2017-06-18T16:26:55.234Z,4.53
2017-06-18T16:29:22.717Z,2.07
2017-06-18T16:31:50.213Z,2.40
2017-06-18T16:34:18.630Z,2.07
2017-06-18T16:36:46.523Z,2.00
2017-06-18T16:39:14.041Z,2.27
2017-06-18T16:41:41.929Z,1.97
2017-06-18T16:44:09.814Z,2.30
2017-06-18T16:46:37.373Z,2.20
2017-06-18T16:49:05.817Z,2.17
2017-06-18T16:51:33.346Z,2.07
2017-06-18T16:54:00.818Z,2.23
2017-06-18T16:56:28.305Z,3.00
2017-06-18T16:58:56.214Z,2.03
2017-06-18T17:01:23.686Z,2.33
2017-06-18T17:03:51.186Z,2.73
2017-06-18T17:06:19.061Z,3.47
2017-06-18T17:08:46.935Z,1.77
2017-06-18T17:11:14.438Z,1.83
2017-06-18T17:13:41.906Z,2.30
2017-06-18T17:16:09.418Z,2.50
2017-06-18T17:18:36.894Z,2.00
2017-06-18T17:21:10.930Z,2.60
2017-06-18T17:23:38.402Z,1.50
2017-06-18T17:26:05.886Z,2.20
2017-06-18T17:28:33.389Z,2.67
2017-06-18T17:31:00.866Z,2.53
2017-06-18T17:33:28.378Z,1.90
2017-06-18T17:35:55.857Z,3.80
2017-06-18T17:38:23.337Z,2.00
2017-06-18T17:40:50.842Z,4.93
2017-06-18T17:43:19.217Z,2.60
2017-06-18T17:45:46.737Z,2.03
2017-06-18T17:48:14.617Z,2.20
2017-06-18T17:50:42.485Z,4.03
2017-06-18T17:53:12.322Z,2.33
2017-06-18T17:55:39.808Z,2.23
2017-06-18T17:58:07.317Z,2.90
2017-06-18T18:00:35.194Z,1.73
2017-06-18T18:03:02.678Z,2.60
2017-06-18T18:05:30.174Z,2.33
2017-06-18T18:07:57.649Z,2.00
2017-06-18T18:10:25.565Z,2.20
2017-06-18T18:12:53.047Z,1.80
2017-06-18T18:15:21.262Z,2.00
2017-06-18T18:17:48.779Z,2.17
2017-06-18T18:20:16.263Z,2.10
2017-06-18T18:22:44.165Z,2.07
2017-06-18T18:25:11.649Z,1.90
2017-06-18T18:27:39.138Z,2.50
2017-06-18T18:30:06.649Z,2.17
2017-06-18T18:32:34.125Z,2.50
2017-06-18T18:35:01.644Z,2.00
2017-06-18T18:37:29.142Z,2.20
2017-06-18T18:39:56.638Z,2.30
2017-06-18T18:42:24.216Z,2.20
2017-06-18T18:44:52.006Z,1.87
2017-06-18T18:47:19.483Z,2.43
2017-06-18T18:49:46.973Z,2.00
2017-06-18T18:52:15.402Z,2.80
2017-06-18T18:54:45.542Z,2.53
2017-06-18T18:57:13.030Z,2.10
2017-06-18T18:59:40.534Z,2.27
2017-06-18T19:02:08.042Z,2.10
2017-06-18T19:04:35.529Z,2.50
2017-06-18T19:07:03.061Z,2.90
2017-06-18T19:09:30.556Z,2.20
2017-06-18T19:11:58.077Z,2.20
2017-06-18T19:14:25.557Z,2.20
2017-06-18T19:16:53.983Z,3.83
2017-06-18T19:19:21.928Z,2.80
2017-06-18T19:21:49.494Z,2.53
2017-06-18T19:24:17.040Z,2.57
2017-06-18T19:26:44.541Z,2.67
2017-06-18T19:29:12.489Z,2.47
2017-06-18T19:31:40.009Z,2.13
2017-06-18T19:34:07.528Z,3.83
2017-06-18T19:36:35.479Z,2.73
2017-06-18T19:39:03.034Z,2.40
2017-06-18T19:41:30.607Z,3.30
2017-06-18T19:43:58.127Z,2.80
2017-06-18T19:46:26.642Z,3.30
2017-06-18T19:48:54.554Z,2.60
2017-06-18T19:51:22.095Z,3.90
2017-06-18T19:53:49.590Z,2.43
2017-06-18T19:56:17.115Z,3.13
2017-06-18T19:58:45.589Z,3.43
2017-06-18T20:01:13.139Z,3.43
2017-06-18T20:03:40.668Z,3.33
2017-06-18T20:06:10.562Z,2.90
2017-06-18T20:08:38.118Z,5.13
2017-06-18T20:11:07.636Z,3.33
2017-06-18T20:13:36.089Z,3.70
2017-06-18T20:16:05.590Z,3.30
2017-06-18T20:18:34.047Z,3.17
2017-06-18T20:21:01.618Z,3.43
2017-06-18T20:23:29.120Z,3.10
2017-06-18T20:25:56.665Z,3.00
2017-06-18T20:28:24.212Z,3.00
2017-06-18T20:30:52.686Z,2.90
2017-06-18T20:33:20.212Z,3.27
2017-06-18T20:35:48.661Z,3.33
2017-06-18T20:38:16.613Z,3.20
2017-06-18T20:40:44.102Z,3.60
2017-06-18T20:43:12.946Z,3.50
2017-06-18T20:45:40.498Z,5.40
2017-06-18T20:48:08.003Z,3.50
2017-06-18T20:50:35.533Z,3.33
2017-06-18T20:53:03.106Z,3.53
2017-06-18T20:55:30.619Z,4.30
2017-06-18T20:57:58.153Z,8.03
2017-06-18T21:00:25.690Z,8.03
2017-06-18T21:02:53.569Z,8.83
2017-06-18T21:05:21.080Z,12.03
2017-06-18T21:07:48.622Z,9.60
2017-06-18T21:10:16.174Z,8.03
2017-06-18T21:12:43.720Z,7.80
2017-06-18T21:15:11.236Z,5.83
2017-06-18T21:17:38.792Z,5.03
2017-06-18T21:20:06.337Z,7.20
2017-06-18T21:22:33.908Z,11.33
2017-06-18T21:25:01.490Z,10.80
2017-06-18T21:27:29.049Z,9.40
2017-06-18T21:29:56.565Z,11.57
2017-06-18T21:32:24.095Z,13.53
2017-06-18T21:34:51.677Z,11.30
2017-06-18T21:37:19.204Z,11.20
2017-06-18T21:39:46.769Z,9.13
2017-06-18T21:42:14.327Z,8.07
2017-06-18T21:44:41.875Z,10.00
2017-06-18T21:47:09.421Z,6.57
2017-06-18T21:49:37.015Z,7.97
2017-06-18T21:52:04.603Z,8.90
2017-06-18T21:54:32.125Z,9.60
2017-06-18T21:56:59.684Z,11.37
2017-06-18T21:59:27.236Z,9.23
2017-06-18T22:01:54.801Z,8.13
2017-06-18T22:04:22.330Z,6.77
2017-06-18T22:06:49.837Z,5.57
2017-06-18T22:09:17.385Z,4.70
2017-06-18T22:11:44.938Z,5.53
2017-06-18T22:14:12.477Z,4.63
2017-06-18T22:16:40.021Z,5.63
2017-06-18T22:19:07.570Z,5.97
2017-06-18T22:21:35.097Z,5.47
2017-06-18T22:24:02.675Z,5.10
2017-06-18T22:26:30.170Z,5.43
2017-06-18T22:28:57.742Z,5.00
2017-06-18T22:31:25.282Z,5.60
2017-06-18T22:33:52.822Z,5.07
2017-06-18T22:36:20.358Z,5.10
2017-06-18T22:38:49.841Z,6.53
2017-06-18T22:41:17.389Z,5.13
2017-06-18T22:43:44.932Z,5.53
2017-06-18T22:46:12.534Z,5.53
2017-06-18T22:48:40.060Z,4.53
2017-06-18T22:51:07.600Z,4.67
2017-06-18T22:53:35.156Z,4.50
2017-06-18T22:56:02.714Z,4.90
2017-06-18T22:58:30.267Z,6.87
2017-06-18T23:00:57.799Z,5.20
2017-06-18T23:03:25.416Z,5.03
2017-06-18T23:05:52.934Z,4.97
2017-06-18T23:08:20.480Z,7.07
2017-06-18T23:10:48.030Z,5.33
2017-06-18T23:13:16.013Z,5.53
2017-06-18T23:15:43.556Z,5.50
2017-06-18T23:18:11.084Z,5.23
2017-06-18T23:20:38.569Z,4.90
2017-06-18T23:23:06.071Z,5.97
2017-06-18T23:25:33.554Z,5.20
2017-06-18T23:28:01.070Z,5.40
2017-06-18T23:30:28.554Z,6.03
2017-06-18T23:32:56.974Z,5.23
2017-06-18T23:35:25.371Z,5.80
2017-06-18T23:37:52.854Z,5.40
2017-06-18T23:40:20.375Z,5.57
2017-06-18T23:42:48.253Z,7.50
2017-06-18T23:45:15.745Z,5.17
2017-06-18T23:47:43.237Z,5.80
2017-06-18T23:50:10.727Z,6.13
2017-06-18T23:52:38.249Z,5.70
2017-06-18T23:55:06.689Z,5.83
2017-06-18T23:57:34.173Z,5.37
